ミュンヘン の空港の天気 - METARとTAF

ミュンヘン国際空港 ( EDDM / MUC ) - ドイツ ミュンヘン
飛行場実況気象(Metar)
観測時間10/20 18:50 CEST (10/20 16:50 UTC)
風向・風速北東 2m/s
視程10km以上
天気現象
なし
気温16℃
湿度82%
気圧1010hPa
METAREDDM 201650Z 05004KT CAVOK 16/13 Q1010 NOSIG
過去の天気等 Google飛行場航空写真 Wunderground天気予報

過去48時間のMETAR

飛行場予報(TAF)
発表時間: 10/20 13:00 CEST (10/20 11:00 UTC)
予報対象時間: 20日14時 CEST ~ 21日20時 CEST
風向・風速東北東 3m/s
視程10km以上
なし
20日17時 CEST ~ 20日19時 CEST に徐々に
風向・風速不定 2m/s
21日5時 CEST ~ 21日9時 CEST に 確率 30% で一時的に
視程1200m
天気現象散在した霧
全天の4割程度の雲 雲底高度 30m
全天の8割程度の雲 雲底高度 60m
21日9時 CEST ~ 21日11時 CEST に徐々に
風向・風速西北西 3m/s
TAF EDDM 201100Z 2012/2118 07006KT CAVOK
BECMG 2015/2017 VRB03KT
PROB30 TEMPO 2103/2107 1200 BCFG SCT001 BKN002
BECMG 2107/2109 30005KT